Time;durP1;ratioP1;P1;durP2;ratioP2;P2;SDS_P1;SDS_P2;PMS_P1;PMS_P2;Temp;Humidity;BMP_temperature;BMP_pressure;BME280_temperature;BME280_humidity;BME280_pressure;Samples;Min_cycle;Max_cycle;Signal;HPM_P1;HPM_P2
2021/11/23 00:02:24;;;;;;;29.40;10.63;;;;;;;1.74;100.00;103288.50;5014940;28;20034;-75
2021/11/23 00:04:50;;;;;;;25.00;9.93;;;;;;;1.82;100.00;103277.94;5013438;28;20044;-75
2021/11/23 00:07:15;;;;;;;23.67;11.15;;;;;;;1.94;100.00;103277.72;5014817;28;20054;-76
2021/11/23 00:09:40;;;;;;;27.92;11.38;;;;;;;2.05;100.00;103274.94;5013472;28;20055;-75
2021/11/23 00:12:06;;;;;;;28.05;10.52;;;;;;;2.15;100.00;103275.66;5014975;28;20026;-75
2021/11/23 00:14:33;;;;;;;22.63;10.40;;;;;;;2.25;100.00;103271.97;5014971;28;20072;-75
2021/11/23 00:16:58;;;;;;;24.65;9.75;;;;;;;2.34;100.00;103272.72;5014444;28;20041;-75
2021/11/23 00:19:23;;;;;;;24.08;9.30;;;;;;;2.40;100.00;103278.72;5015204;28;20038;-76
2021/11/23 00:21:49;;;;;;;27.08;10.60;;;;;;;2.49;100.00;103276.84;5015341;28;20041;-76
2021/11/23 00:24:15;;;;;;;24.90;10.60;;;;;;;2.56;100.00;103275.84;5016156;28;20030;-76
2021/11/23 00:26:40;;;;;;;23.05;9.93;;;;;;;2.65;100.00;103279.16;5014681;28;20156;-76
2021/11/23 00:29:06;;;;;;;22.80;10.05;;;;;;;2.75;100.00;103277.25;5014433;28;20030;-75
2021/11/23 00:31:31;;;;;;;26.77;10.20;;;;;;;2.80;100.00;103275.38;5014938;28;20493;-76
2021/11/23 00:33:56;;;;;;;21.77;9.32;;;;;;;2.86;100.00;103277.03;5014439;28;20034;-76
2021/11/23 00:36:22;;;;;;;28.38;9.25;;;;;;;2.92;100.00;103281.31;5015373;28;20040;-76
2021/11/23 00:38:47;;;;;;;27.92;9.48;;;;;;;2.97;100.00;103274.19;5013093;28;20143;-75
2021/11/23 00:41:16;;;;;;;20.95;9.40;;;;;;;3.00;100.00;103274.13;5014877;28;20046;-75
2021/11/23 00:43:42;;;;;;;22.20;9.13;;;;;;;3.06;100.00;103275.78;5013752;28;20030;-75
2021/11/23 00:46:07;;;;;;;23.38;9.13;;;;;;;3.10;100.00;103278.31;5014278;28;20036;-74
2021/11/23 00:48:32;;;;;;;19.88;7.90;;;;;;;3.14;100.00;103273.88;5014277;28;20038;-75
2021/11/23 00:50:58;;;;;;;24.20;8.07;;;;;;;3.19;100.00;103274.63;5013853;28;20037;-75
2021/11/23 00:53:24;;;;;;;18.27;8.95;;;;;;;3.23;100.00;103276.31;5014153;28;20116;-75
2021/11/23 00:55:50;;;;;;;18.10;7.95;;;;;;;3.28;100.00;103273.59;5013887;28;20065;-75
2021/11/23 00:58:15;;;;;;;25.52;7.65;;;;;;;3.31;100.00;103273.53;5013933;28;20478;-76
2021/11/23 01:00:41;;;;;;;22.90;8.27;;;;;;;3.34;100.00;103276.09;5014141;28;20088;-75
2021/11/23 01:03:06;;;;;;;23.90;8.40;;;;;;;3.37;100.00;103270.75;5013447;28;20026;-75
2021/11/23 01:05:32;;;;;;;22.23;7.90;;;;;;;3.38;100.00;103269.84;5014185;28;20160;-76
2021/11/23 01:07:58;;;;;;;25.02;8.05;;;;;;;3.39;100.00;103271.59;5013483;28;20049;-76
2021/11/23 01:10:24;;;;;;;18.50;8.18;;;;;;;3.40;100.00;103268.06;5013785;28;20431;-76
2021/11/23 01:12:50;;;;;;;23.08;7.15;;;;;;;3.44;100.00;103266.25;5013133;28;20033;-76
2021/11/23 01:15:16;;;;;;;26.77;7.30;;;;;;;3.46;100.00;103264.44;5013614;28;20038;-75
2021/11/23 01:20:10;;;;;;;22.67;7.82;;;;;;;3.50;100.00;103261.69;5011971;28;20046;-73
2021/11/23 01:22:37;;;;;;;19.52;7.55;;;;;;;3.52;100.00;103257.28;5013443;28;20034;-74
2021/11/23 01:25:04;;;;;;;19.08;7.20;;;;;;;3.57;100.00;103251.03;5012820;28;20034;-74
2021/11/23 01:27:29;;;;;;;22.67;7.13;;;;;;;3.59;100.00;103250.09;5013287;28;20041;-73
2021/11/23 01:29:55;;;;;;;17.92;7.00;;;;;;;3.63;100.00;103262.28;5012857;28;20030;-73
2021/11/23 01:32:20;;;;;;;15.48;6.13;;;;;;;3.66;100.00;103253.47;5013754;28;20486;-74
2021/11/23 01:34:46;;;;;;;21.60;5.80;;;;;;;3.70;100.00;103252.47;5013391;28;20030;-75
2021/11/23 01:37:11;;;;;;;21.42;6.13;;;;;;;3.73;100.00;103249.78;5012700;28;20033;-75
2021/11/23 01:39:36;;;;;;;23.92;6.40;;;;;;;3.78;100.00;103252.31;5013160;28;20117;-74
2021/11/23 01:42:02;;;;;;;20.23;5.90;;;;;;;3.80;100.00;103240.81;5012793;28;20105;-75
2021/11/23 01:44:28;;;;;;;15.25;5.32;;;;;;;3.83;100.00;103247.81;5013135;28;20088;-75
2021/11/23 01:46:53;;;;;;;18.70;5.75;;;;;;;3.88;100.00;103244.16;5011812;28;20042;-75
2021/11/23 01:49:19;;;;;;;18.58;5.72;;;;;;;3.93;100.00;103244.03;5013264;28;20037;-75
2021/11/23 01:51:44;;;;;;;16.27;6.13;;;;;;;3.96;100.00;103246.59;5013126;28;20033;-74
2021/11/23 01:54:11;;;;;;;20.75;6.53;;;;;;;3.98;100.00;103244.78;5012883;28;20042;-74
2021/11/23 01:56:37;;;;;;;16.08;5.70;;;;;;;4.01;100.00;103238.59;5012765;28;20029;-74
2021/11/23 01:59:03;;;;;;;15.13;5.78;;;;;;;4.05;100.00;103242.88;5012614;28;20030;-74
2021/11/23 02:01:28;;;;;;;21.92;6.28;;;;;;;4.08;100.00;103240.16;5011796;28;20030;-74
2021/11/23 02:03:54;;;;;;;20.65;5.72;;;;;;;4.12;100.00;103248.84;5012591;28;20033;-73
2021/11/23 02:06:19;;;;;;;17.08;5.80;;;;;;;4.14;100.00;103249.69;5012870;28;20423;-74
2021/11/23 02:08:45;;;;;;;17.73;5.15;;;;;;;4.14;100.00;103250.56;5013032;28;20044;-73
2021/11/23 02:11:10;;;;;;;16.20;5.15;;;;;;;4.15;100.00;103252.28;5011106;28;20138;-74
2021/11/23 02:13:36;;;;;;;15.95;4.68;;;;;;;4.16;100.00;103246.09;5013001;28;20029;-74
2021/11/23 02:16:01;;;;;;;20.35;5.55;;;;;;;4.18;100.00;103246.06;5012412;28;20030;-74
2021/11/23 02:18:28;;;;;;;14.20;4.88;;;;;;;4.23;100.00;103244.19;5012307;28;20058;-74
2021/11/23 02:20:54;;;;;;;21.60;6.53;;;;;;;4.27;100.00;103235.31;5012643;28;20069;-78
2021/11/23 02:23:20;;;;;;;18.17;5.50;;;;;;;4.29;100.00;103230.84;5012782;28;20050;-74
2021/11/23 02:25:46;;;;;;;14.20;5.28;;;;;;;4.31;100.00;103231.66;5012531;28;20104;-74
2021/11/23 02:28:12;;;;;;;18.35;5.60;;;;;;;4.33;100.00;103231.63;5011968;28;20041;-74
2021/11/23 02:30:45;;;;;;;15.70;4.93;;;;;;;4.32;100.00;103228.13;5011458;28;20048;-74
2021/11/23 02:33:11;;;;;;;12.80;4.85;;;;;;;4.33;100.00;103234.25;5013508;28;20084;-74
2021/11/23 02:35:37;;;;;;;18.67;5.43;;;;;;;4.34;100.00;103225.47;5016741;28;20041;-74
2021/11/23 02:38:03;;;;;;;12.55;4.57;;;;;;;4.34;100.00;103228.94;5015985;28;20033;-74
2021/11/23 02:40:29;;;;;;;17.75;5.72;;;;;;;4.37;100.00;103214.84;5016391;28;20042;-74
2021/11/23 02:42:55;;;;;;;17.23;5.53;;;;;;;4.38;100.00;103214.78;5016328;28;20034;-74
2021/11/23 02:45:23;;;;;;;19.17;5.55;;;;;;;4.39;100.00;103213.03;5016463;28;20065;-73
2021/11/23 02:47:53;;;;;;;18.52;4.97;;;;;;;4.37;100.00;103202.53;5016520;28;20068;-73
2021/11/23 02:50:20;;;;;;;18.80;4.75;;;;;;;4.38;100.00;103203.41;5015976;28;20038;-74
2021/11/23 02:52:48;;;;;;;18.48;5.38;;;;;;;4.38;100.00;103204.25;5016543;28;20037;-74
2021/11/23 02:55:14;;;;;;;18.15;4.45;;;;;;;4.39;100.00;103211.25;5015550;28;20045;-75
2021/11/23 02:57:40;;;;;;;15.68;4.43;;;;;;;4.41;100.00;103211.22;5016298;28;20046;-74
2021/11/23 03:00:09;;;;;;;19.45;4.18;;;;;;;4.44;100.00;103203.22;5015489;28;20101;-74
2021/11/23 03:02:35;;;;;;;18.85;4.55;;;;;;;4.46;100.00;103204.03;5014846;28;20033;-74
2021/11/23 03:05:01;;;;;;;17.08;3.65;;;;;;;4.46;100.00;103200.53;5015619;28;20042;-75
2021/11/23 03:07:26;;;;;;;10.48;3.40;;;;;;;4.38;100.00;103198.97;5016042;28;20133;-74
2021/11/23 03:09:52;;;;;;;14.48;3.70;;;;;;;4.28;100.00;103194.00;5016053;28;20046;-74
2021/11/23 03:12:23;;;;;;;17.70;4.07;;;;;;;4.17;100.00;103192.50;5015375;28;20037;-74
2021/11/23 03:14:49;;;;;;;20.27;3.17;;;;;;;4.10;100.00;103190.94;5015937;28;20034;-74
2021/11/23 03:17:16;;;;;;;16.55;3.90;;;;;;;4.09;100.00;103191.84;5015380;28;20116;-74
2021/11/23 03:19:43;;;;;;;22.00;4.00;;;;;;;4.13;100.00;103187.34;5015634;28;20042;-74
2021/11/23 03:22:09;;;;;;;14.63;3.65;;;;;;;4.17;100.00;103192.50;5015124;28;20030;-74
2021/11/23 03:24:35;;;;;;;15.45;3.17;;;;;;;4.25;100.00;103205.47;5015766;28;20034;-74
2021/11/23 03:27:00;;;;;;;17.13;3.80;;;;;;;4.34;100.00;103194.69;5015689;28;20474;-74
2021/11/23 03:29:25;;;;;;;14.52;3.92;;;;;;;4.41;100.00;103198.88;5015318;28;20466;-74
2021/11/23 03:31:51;;;;;;;16.20;3.50;;;;;;;4.47;100.00;103192.59;5015697;28;20157;-74
2021/11/23 03:34:17;;;;;;;14.73;3.15;;;;;;;4.56;100.00;103202.03;5015095;28;20080;-74
2021/11/23 03:36:43;;;;;;;14.65;3.25;;;;;;;4.66;100.00;103198.22;5014088;28;20508;-74
2021/11/23 03:39:09;;;;;;;24.67;3.70;;;;;;;4.75;100.00;103199.75;5014763;28;20180;-74
2021/11/23 03:41:35;;;;;;;11.43;3.20;;;;;;;4.83;100.00;103208.28;5015484;28;20041;-74
2021/11/23 03:44:01;;;;;;;10.45;3.05;;;;;;;4.92;100.00;103202.75;4997670;28;20037;-74
2021/11/23 03:46:27;;;;;;;11.57;3.08;;;;;;;5.01;100.00;103198.97;5014716;28;20037;-74
2021/11/23 03:48:52;;;;;;;13.35;4.22;;;;;;;5.16;100.00;103196.81;5015277;28;20041;-74
2021/11/23 03:51:19;;;;;;;18.02;2.95;;;;;;;5.23;100.00;103193.94;5014766;28;20030;-74
2021/11/23 03:53:44;;;;;;;13.70;2.50;;;;;;;5.28;100.00;103186.75;5015344;28;20160;-74
2021/11/23 03:56:12;;;;;;;6.68;2.47;;;;;;;5.31;100.00;103183.13;5013440;28;20061;-74
2021/11/23 03:58:37;;;;;;;6.90;2.10;;;;;;;5.32;100.00;103184.88;5015196;28;20030;-74
2021/11/23 04:01:03;;;;;;;12.02;2.45;;;;;;;5.32;100.00;103182.22;5014970;28;20056;-74
2021/11/23 04:03:28;;;;;;;7.70;2.22;;;;;;;5.32;100.00;103182.22;5014441;28;20085;-74
2021/11/23 04:05:54;;;;;;;7.78;1.95;;;;;;;5.30;100.00;103182.28;5014798;28;20042;-74
2021/11/23 04:08:20;;;;;;;5.10;1.83;;;;;;;5.29;100.00;103188.47;5014581;28;20037;-74
2021/11/23 04:10:46;;;;;;;7.95;2.60;;;;;;;5.30;100.00;103190.19;5014873;28;20446;-74
2021/11/23 04:13:11;;;;;;;8.18;2.15;;;;;;;5.30;100.00;103186.69;5013183;28;20065;-75
2021/11/23 04:15:37;;;;;;;8.73;2.30;;;;;;;5.29;100.00;103191.09;5014822;28;20076;-74
2021/11/23 04:18:02;;;;;;;9.80;2.45;;;;;;;5.30;100.00;103192.84;5014366;28;20459;-74
2021/11/23 04:20:28;;;;;;;9.90;2.00;;;;;;;5.33;100.00;103189.25;5014098;28;20048;-74
2021/11/23 04:22:53;;;;;;;12.07;2.15;;;;;;;5.36;100.00;103190.91;5014482;28;20084;-74
2021/11/23 04:25:19;;;;;;;12.32;2.40;;;;;;;5.37;100.00;103192.66;5013044;28;20125;-74
2021/11/23 04:27:44;;;;;;;4.50;2.08;;;;;;;5.36;100.00;103188.25;5013637;28;20458;-74
2021/11/23 04:30:12;;;;;;;9.82;2.20;;;;;;;5.36;100.00;103193.53;5014409;28;20372;-74
2021/11/23 04:32:37;;;;;;;10.23;2.08;;;;;;;5.34;100.00;103196.22;5014301;28;20034;-74
2021/11/23 04:35:05;;;;;;;10.00;2.38;;;;;;;5.33;100.00;103188.38;5014254;28;20025;-74
2021/11/23 04:37:31;;;;;;;7.85;2.38;;;;;;;5.36;100.00;103193.53;5013536;28;20033;-74
2021/11/23 04:39:56;;;;;;;7.53;2.20;;;;;;;5.37;100.00;103190.84;5014476;28;20026;-74
2021/11/23 04:42:21;;;;;;;8.20;2.25;;;;;;;5.39;100.00;103188.16;5012640;28;20402;-74
2021/11/23 04:44:47;;;;;;;7.45;2.17;;;;;;;5.40;100.00;103184.63;5014324;28;20041;-73
2021/11/23 04:47:13;;;;;;;10.00;2.90;;;;;;;5.41;100.00;103186.38;5014187;28;20042;-74
2021/11/23 04:49:38;;;;;;;9.55;2.28;;;;;;;5.41;100.00;103179.28;5013987;28;20034;-74
2021/11/23 04:52:04;;;;;;;12.00;2.35;;;;;;;5.41;100.00;103173.16;5014026;28;20036;-74
2021/11/23 04:54:30;;;;;;;9.20;2.50;;;;;;;5.43;100.00;103168.69;5013666;28;20073;-74
2021/11/23 04:56:55;;;;;;;11.20;2.63;;;;;;;5.44;100.00;103173.06;5013399;28;20535;-74
2021/11/23 04:59:21;;;;;;;13.02;2.78;;;;;;;5.44;100.00;103165.16;5013604;28;20097;-74
2021/11/23 05:01:46;;;;;;;15.25;2.72;;;;;;;5.43;100.00;103161.66;5013944;28;20404;-74
2021/11/23 05:04:12;;;;;;;11.77;2.78;;;;;;;5.45;100.00;103167.72;5013805;28;20504;-74
2021/11/23 05:06:37;;;;;;;8.52;2.30;;;;;;;5.46;100.00;103168.59;5013358;28;20030;-74
2021/11/23 05:09:03;;;;;;;14.77;2.33;;;;;;;5.43;100.00;103161.66;5013920;28;20041;-74
2021/11/23 05:11:28;;;;;;;10.00;2.33;;;;;;;5.51;100.00;103158.75;5013280;28;20116;-74
2021/11/23 05:13:54;;;;;;;10.32;3.13;;;;;;;5.56;100.00;103156.81;5013537;28;20095;-74
2021/11/23 05:16:20;;;;;;;5.88;2.30;;;;;;;5.56;100.00;103154.19;5013230;28;20049;-74
2021/11/23 05:18:45;;;;;;;8.88;2.42;;;;;;;5.58;100.00;103162.03;5013498;28;20057;-73
2021/11/23 05:21:11;;;;;;;11.65;2.40;;;;;;;5.59;100.00;103156.72;5013370;28;20041;-73
2021/11/23 05:23:36;;;;;;;13.85;2.33;;;;;;;5.60;100.00;103166.38;5013081;28;20524;-74
2021/11/23 05:26:02;;;;;;;9.32;2.45;;;;;;;5.61;100.00;103160.19;5013614;28;20034;-74
2021/11/23 05:28:28;;;;;;;11.13;2.63;;;;;;;5.63;100.00;103160.13;5011701;28;20478;-74
2021/11/23 05:30:53;;;;;;;11.43;2.38;;;;;;;5.64;100.00;103165.38;5013334;28;20037;-74
2021/11/23 05:33:19;;;;;;;16.05;2.35;;;;;;;5.67;100.00;103166.16;5013371;28;20038;-74
2021/11/23 05:35:49;;;;;;;10.70;2.53;;;;;;;5.68;100.00;103167.91;5013177;28;20025;-74
2021/11/23 05:38:16;;;;;;;15.23;2.63;;;;;;;5.69;100.00;103164.34;5012174;28;20100;-74
2021/11/23 05:40:41;;;;;;;11.95;2.47;;;;;;;5.69;100.00;103164.34;5012817;28;20061;-74
2021/11/23 05:43:06;;;;;;;21.35;2.75;;;;;;;5.69;100.00;103167.84;5013070;28;20072;-74
2021/11/23 05:45:32;;;;;;;10.35;2.08;;;;;;;5.72;100.00;103175.69;5012619;28;20037;-74
2021/11/23 05:47:57;;;;;;;12.15;2.13;;;;;;;5.70;100.00;103171.34;5013103;28;20389;-75
2021/11/23 05:50:23;;;;;;;8.45;1.83;;;;;;;5.67;100.00;103163.53;5012567;28;20030;-75
2021/11/23 05:52:48;;;;;;;27.75;3.05;;;;;;;5.64;100.00;103168.00;5013183;28;20132;-74
2021/11/23 05:55:13;;;;;;;14.00;1.90;;;;;;;5.65;100.00;103161.78;5013047;28;20109;-74
2021/11/23 05:57:39;;;;;;;19.35;2.20;;;;;;;5.67;100.00;103160.88;5012769;28;20113;-74
2021/11/23 06:00:06;;;;;;;14.75;2.05;;;;;;;5.72;100.00;103157.19;5013024;28;20103;-74
2021/11/23 06:02:32;;;;;;;25.45;2.85;;;;;;;5.80;100.00;103162.22;5012515;28;20038;-74
2021/11/23 06:04:59;;;;;;;20.33;2.45;;;;;;;5.91;100.00;103162.72;5012918;28;20088;-74
2021/11/23 06:07:24;;;;;;;21.88;2.28;;;;;;;6.02;100.00;103164.16;5010722;28;20120;-77
2021/11/23 06:09:50;;;;;;;19.48;2.28;;;;;;;6.08;100.00;103161.31;5012906;28;20117;-74
2021/11/23 06:12:15;;;;;;;21.05;2.17;;;;;;;6.15;100.00;103166.34;5012560;28;20030;-74
2021/11/23 06:14:41;;;;;;;19.60;2.13;;;;;;;6.22;100.00;103168.75;5012296;28;20044;-74
2021/11/23 06:17:08;;;;;;;11.35;1.70;;;;;;;6.26;100.00;103171.25;5012540;28;20061;-74
2021/11/23 06:19:33;;;;;;;21.17;1.80;;;;;;;6.31;100.00;103168.44;5011974;28;20133;-74
2021/11/23 06:21:59;;;;;;;11.13;2.20;;;;;;;6.35;100.00;103165.63;5012589;28;20121;-74
2021/11/23 06:24:25;;;;;;;23.50;2.88;;;;;;;6.41;100.00;103172.47;5011883;28;20516;-74
2021/11/23 06:26:50;;;;;;;17.20;1.70;;;;;;;6.46;100.00;103167.88;5012349;28;20030;-75
2021/11/23 06:29:15;;;;;;;20.05;1.85;;;;;;;6.49;100.00;103175.72;4999203;28;20038;-74
2021/11/23 06:31:41;;;;;;;14.82;1.90;;;;;;;6.53;100.00;103179.13;4988423;28;20149;-73
2021/11/23 06:34:09;;;;;;;24.27;1.90;;;;;;;6.58;100.00;103179.78;4990133;28;20451;-74
2021/11/23 06:36:35;;;;;;;11.80;2.05;;;;;;;6.64;100.00;103178.72;4988852;28;20057;-75
2021/11/23 06:39:05;;;;;;;14.68;2.22;;;;;;;6.66;100.00;103172.47;4990356;28;20033;-73
2021/11/23 06:41:31;;;;;;;11.57;1.98;;;;;;;6.67;100.00;103171.56;4989314;28;20035;-74
2021/11/23 06:43:57;;;;;;;14.57;1.90;;;;;;;6.68;100.00;103170.59;4990189;28;20049;-73
2021/11/23 06:46:23;;;;;;;12.13;1.83;;;;;;;6.67;100.00;103173.31;4990019;28;20034;-75
2021/11/23 06:48:49;;;;;;;12.30;2.42;;;;;;;6.68;100.00;103175.03;4989842;28;20533;-74
2021/11/23 06:51:14;;;;;;;14.43;2.08;;;;;;;6.68;100.00;103175.03;4989975;28;20115;-74
2021/11/23 06:53:39;;;;;;;9.25;1.88;;;;;;;6.64;100.00;103178.72;4989330;28;20363;-74
2021/11/23 06:56:05;;;;;;;17.90;2.83;;;;;;;6.62;100.00;103185.84;4990641;28;20041;-73
2021/11/23 06:58:30;;;;;;;11.27;1.83;;;;;;;6.60;100.00;103183.28;4991312;28;20455;-73
2021/11/23 07:00:56;;;;;;;16.33;2.20;;;;;;;6.59;100.00;103178.03;4989480;28;20486;-72
2021/11/23 07:03:21;;;;;;;21.20;2.42;;;;;;;6.59;100.00;103180.69;4989848;28;20040;-77
2021/11/23 07:05:47;;;;;;;10.25;2.42;;;;;;;6.58;100.00;103189.53;4990027;28;20035;-76
2021/11/23 07:08:13;;;;;;;9.25;1.80;;;;;;;6.52;100.00;103180.91;4988675;28;20081;-74
2021/11/23 07:10:39;;;;;;;13.95;2.40;;;;;;;6.44;100.00;103192.69;4989348;28;20030;-73
2021/11/23 07:13:04;;;;;;;7.65;1.80;;;;;;;6.34;100.00;103193.00;4990220;28;20038;-73
2021/11/23 07:15:30;;;;;;;14.07;1.77;;;;;;;6.25;100.00;103193.31;5005264;28;20109;-72
2021/11/23 07:17:55;;;;;;;12.88;2.13;;;;;;;6.21;100.00;103206.69;5010703;28;20041;-73
2021/11/23 07:20:22;;;;;;;9.23;2.00;;;;;;;6.15;100.00;103210.41;5015542;28;20120;-72
2021/11/23 07:22:47;;;;;;;11.50;1.90;;;;;;;6.15;100.00;103205.09;5014030;28;20092;-72
2021/11/23 07:25:13;;;;;;;11.60;2.03;;;;;;;6.19;100.00;103214.66;5015689;28;20030;-72
2021/11/23 07:27:42;;;;;;;8.35;2.38;;;;;;;6.22;100.00;103211.91;5015154;28;20037;-72
2021/11/23 07:30:08;;;;;;;6.93;2.00;;;;;;;6.26;100.00;103213.53;5015597;28;20390;-71
2021/11/23 07:32:35;;;;;;;12.90;2.28;;;;;;;6.28;100.00;103217.00;5015390;28;20038;-71
2021/11/23 07:35:01;;;;;;;15.02;3.35;;;;;;;6.33;100.00;103214.22;5015532;28;20038;-72
2021/11/23 07:37:29;;;;;;;11.95;2.70;;;;;;;6.35;100.00;103220.31;5015554;28;20034;-74
2021/11/23 07:39:55;;;;;;;11.52;2.25;;;;;;;6.33;100.00;103217.72;5015127;28;20034;-73
2021/11/23 07:42:20;;;;;;;12.95;2.13;;;;;;;6.31;100.00;103219.53;5015634;28;20030;-73
2021/11/23 07:44:46;;;;;;;11.68;2.72;;;;;;;6.34;100.00;103216.81;5014910;28;20034;-73
2021/11/23 07:47:11;;;;;;;13.85;2.53;;;;;;;6.32;100.00;103221.25;5014090;28;20479;-74
2021/11/23 07:49:37;;;;;;;15.70;2.42;;;;;;;6.23;100.00;103218.09;5015465;28;20441;-71
2021/11/23 07:52:02;;;;;;;14.90;3.22;;;;;;;6.12;100.00;103221.06;5014847;28;20034;-72
2021/11/23 07:54:28;;;;;;;13.13;2.72;;;;;;;6.00;100.00;103217.94;5014088;28;20470;-73
2021/11/23 07:56:53;;;;;;;16.33;2.83;;;;;;;5.90;100.00;103232.34;5014784;28;20026;-73
2021/11/23 07:59:18;;;;;;;10.63;2.40;;;;;;;5.83;100.00;103231.66;5013974;28;20385;-73
2021/11/23 08:01:44;;;;;;;16.92;2.67;;;;;;;5.85;100.00;103236.03;5014506;28;20042;-74
2021/11/23 08:04:10;;;;;;;8.52;2.45;;;;;;;5.97;100.00;103233.03;5015437;28;20463;-73
2021/11/23 08:06:35;;;;;;;12.90;2.65;;;;;;;6.06;100.00;103237.13;5015243;28;20033;-73
2021/11/23 08:09:01;;;;;;;15.35;3.25;;;;;;;6.25;100.00;103238.25;5013396;28;20046;-73
2021/11/23 08:11:26;;;;;;;14.30;3.50;;;;;;;6.53;100.00;103232.00;5013868;28;20386;-72
2021/11/23 08:13:53;;;;;;;13.63;3.28;;;;;;;6.74;100.00;103240.97;5014495;28;20038;-73
2021/11/23 08:16:18;;;;;;;22.15;3.40;;;;;;;6.85;100.00;103241.44;5015059;28;20034;-73
2021/11/23 08:18:44;;;;;;;23.00;3.03;;;;;;;6.92;100.00;103236.78;5014223;28;20069;-74
2021/11/23 08:21:09;;;;;;;17.95;2.95;;;;;;;6.94;100.00;103242.91;5015275;28;20034;-71
2021/11/23 08:23:34;;;;;;;18.80;2.75;;;;;;;6.89;100.00;103239.53;5014642;28;20072;-71
2021/11/23 08:26:00;;;;;;;11.15;2.58;;;;;;;6.81;100.00;103238.97;5014219;28;20402;-73
2021/11/23 08:28:27;;;;;;;14.02;2.10;;;;;;;6.73;100.00;103239.22;5014593;28;20120;-73
2021/11/23 08:30:54;;;;;;;9.98;2.85;;;;;;;6.72;100.00;103253.41;5012851;28;20034;-73
2021/11/23 08:33:20;;;;;;;14.00;2.70;;;;;;;6.79;100.00;103243.44;5013384;28;20108;-72
2021/11/23 08:35:45;;;;;;;19.05;2.97;;;;;;;6.87;100.00;103246.69;5014265;28;20069;-72
2021/11/23 08:38:11;;;;;;;19.52;2.80;;;;;;;6.95;100.00;103243.75;5013967;28;20030;-73
2021/11/23 08:40:38;;;;;;;18.10;2.78;;;;;;;7.06;100.00;103252.16;5013000;28;20041;-73
2021/11/23 08:43:04;;;;;;;13.15;3.30;;;;;;;7.13;100.00;103250.16;5013788;28;20038;-73
2021/11/23 08:45:30;;;;;;;19.35;4.78;;;;;;;7.13;100.00;103252.78;5014039;28;20518;-71
2021/11/23 08:47:55;;;;;;;24.33;5.53;;;;;;;7.12;100.00;103246.66;5013849;28;20034;-74
2021/11/23 08:50:22;;;;;;;17.70;3.55;;;;;;;7.15;100.00;103246.53;5014082;28;20042;-73
2021/11/23 08:52:47;;;;;;;19.05;3.35;;;;;;;7.28;100.00;103246.06;5014344;28;20052;-73
2021/11/23 08:55:13;;;;;;;15.93;2.97;;;;;;;7.43;100.00;103249.91;4996123;28;20474;-71
2021/11/23 08:57:39;;;;;;;14.27;3.70;;;;;;;7.57;100.00;103252.88;5013992;28;20037;-71
2021/11/23 09:00:21;;;;;;;12.23;3.40;;;;;;;7.69;100.00;103249.72;5013365;28;20038;-72
2021/11/23 09:02:53;;;;;;;20.20;3.45;;;;;;;7.77;100.00;103258.22;5014084;28;20447;-71
2021/11/23 09:05:21;;;;;;;13.27;2.40;;;;;;;7.72;100.00;103260.22;5013985;28;20061;-72
2021/11/23 09:07:47;;;;;;;22.05;2.78;;;;;;;7.68;100.00;103258.59;5013715;28;20386;-72
2021/11/23 09:10:19;;;;;;;13.30;2.13;;;;;;;7.65;100.00;103261.38;5011995;28;20033;-72
2021/11/23 09:12:45;;;;;;;20.55;2.45;;;;;;;7.61;100.00;103258.91;5013648;28;20096;-72
2021/11/23 09:15:11;;;;;;;9.80;2.08;;;;;;;7.59;100.00;103270.41;5012119;28;20037;-72
2021/11/23 09:17:37;;;;;;;17.35;2.03;;;;;;;7.57;100.00;103266.97;5013639;28;20037;-72
2021/11/23 09:20:03;;;;;;;11.13;2.00;;;;;;;7.56;100.00;103267.91;5013044;28;20054;-72
2021/11/23 09:22:30;;;;;;;10.65;2.28;;;;;;;7.58;100.00;103262.53;5013527;28;20030;-72
2021/11/23 09:24:56;;;;;;;17.05;2.47;;;;;;;7.61;100.00;103265.06;5012809;28;20045;-72
2021/11/23 09:27:21;;;;;;;13.52;2.22;;;;;;;7.68;100.00;103266.56;5013195;28;20041;-72
2021/11/23 09:29:47;;;;;;;15.88;2.75;;;;;;;7.82;100.00;103273.09;5013554;28;20414;-72
2021/11/23 09:32:13;;;;;;;12.48;2.75;;;;;;;8.01;100.00;103260.81;5012865;28;20045;-72
2021/11/23 09:34:39;;;;;;;16.95;2.05;;;;;;;8.21;100.00;103275.03;5013430;28;20034;-72
2021/11/23 09:37:04;;;;;;;12.05;2.25;;;;;;;8.40;100.00;103270.66;5012804;28;20041;-72
2021/11/23 09:39:30;;;;;;;15.07;2.10;;;;;;;8.53;100.00;103276.34;5012089;28;20037;-72
2021/11/23 09:41:55;;;;;;;12.18;1.88;;;;;;;8.57;100.00;103277.06;5013016;28;20030;-73
2021/11/23 09:44:21;;;;;;;9.30;2.00;;;;;;;8.53;100.00;103275.50;5012018;28;20033;-73
2021/11/23 09:46:46;;;;;;;11.25;2.35;;;;;;;8.43;100.00;103277.66;5013433;28;20029;-73
2021/11/23 09:49:13;;;;;;;5.88;1.35;;;;;;;8.29;100.00;103278.25;5012842;28;20053;-74
2021/11/23 09:51:40;;;;;;;9.95;1.90;;;;;;;8.23;100.00;103279.34;5013071;28;20494;-74
2021/11/23 09:54:08;;;;;;;12.63;2.25;;;;;;;8.36;100.00;103276.19;5012593;28;20034;-74
2021/11/23 09:56:36;;;;;;;6.57;1.60;;;;;;;8.76;100.00;103282.44;5012876;28;20029;-72
2021/11/23 09:59:03;;;;;;;8.70;1.98;;;;;;;9.22;100.00;103290.16;5012695;28;20034;-73
2021/11/23 10:01:32;;;;;;;13.32;1.73;;;;;;;9.56;100.00;103288.59;5013112;28;20030;-72
2021/11/23 10:04:04;;;;;;;8.13;1.75;;;;;;;9.64;96.81;103284.63;5011764;28;20025;-72
2021/11/23 10:06:31;;;;;;;11.25;2.00;;;;;;;9.39;94.83;103287.59;5013101;28;20149;-73
2021/11/23 10:08:58;;;;;;;13.52;2.50;;;;;;;9.15;95.69;103289.56;5012752;28;20037;-73
2021/11/23 10:11:26;;;;;;;6.50;1.48;;;;;;;8.83;96.83;103289.22;5011305;28;20398;-73
2021/11/23 10:13:56;;;;;;;3.20;0.90;;;;;;;8.61;97.87;103291.94;5013013;28;20462;-73
2021/11/23 10:16:22;;;;;;;6.25;1.05;;;;;;;8.45;99.14;103284.66;5012492;28;20107;-73
2021/11/23 10:18:51;;;;;;;2.30;0.80;;;;;;;8.33;99.93;103281.63;5008736;28;20059;-73
2021/11/23 10:21:20;;;;;;;3.35;0.80;;;;;;;8.24;100.00;103289.03;5012374;28;20132;-73
2021/11/23 10:23:48;;;;;;;4.30;0.63;;;;;;;8.17;100.00;103284.91;5012637;28;20033;-73
2021/11/23 10:26:18;;;;;;;2.25;0.63;;;;;;;8.11;100.00;103278.06;5011182;28;20040;-73
2021/11/23 10:28:49;;;;;;;3.42;1.15;;;;;;;8.07;100.00;103275.59;5011656;28;20067;-72
2021/11/23 10:31:16;;;;;;;4.72;0.77;;;;;;;8.07;100.00;103273.81;5012544;28;20037;-73
2021/11/23 10:33:43;;;;;;;4.45;0.85;;;;;;;8.07;100.00;103273.81;5012750;28;20061;-73
2021/11/23 10:36:16;;;;;;;1.40;0.73;;;;;;;8.11;100.00;103278.06;5012180;28;20030;-73
2021/11/23 10:38:42;;;;;;;2.13;0.73;;;;;;;8.21;100.00;103265.31;5012872;28;20109;-73
2021/11/23 10:41:16;;;;;;;2.47;0.65;;;;;;;8.38;100.00;103272.53;5011318;28;20470;-73
2021/11/23 10:43:43;;;;;;;2.50;0.80;;;;;;;8.55;100.00;103263.03;5012905;28;20041;-74
2021/11/23 10:46:16;;;;;;;5.10;0.95;;;;;;;8.72;100.00;103263.16;5011999;28;20497;-73
2021/11/23 10:48:50;;;;;;;5.80;1.20;;;;;;;8.86;98.21;103259.88;5012486;28;20044;-73
2021/11/23 10:51:16;;;;;;;2.65;0.57;;;;;;;9.05;97.80;103264.38;5012465;28;20121;-73
2021/11/23 10:53:42;;;;;;;3.28;0.85;;;;;;;9.20;95.66;103262.81;5013344;28;20117;-73
2021/11/23 10:56:10;;;;;;;4.10;0.80;;;;;;;9.33;95.71;103263.94;5015996;28;20034;-74
2021/11/23 10:58:36;;;;;;;2.83;0.65;;;;;;;9.45;95.62;103251.88;5016623;28;20033;-73
2021/11/23 11:01:05;;;;;;;3.20;0.50;;;;;;;9.54;95.26;103256.78;5016282;28;20034;-72
2021/11/23 11:03:32;;;;;;;2.92;0.75;;;;;;;9.64;94.64;103259.84;5015920;28;20038;-73
2021/11/23 11:06:01;;;;;;;4.60;0.73;;;;;;;9.60;93.05;103253.81;5016738;28;20053;-73
2021/11/23 11:08:32;;;;;;;3.85;0.85;;;;;;;9.61;93.91;103250.19;5015986;28;20032;-73
2021/11/23 11:10:58;;;;;;;4.50;0.95;;;;;;;9.66;93.68;103247.34;5016295;28;20544;-74
2021/11/23 11:13:24;;;;;;;4.40;1.00;;;;;;;9.71;93.13;103238.19;5014347;28;20034;-72
2021/11/23 11:15:52;;;;;;;3.75;0.95;;;;;;;9.77;92.14;103244.16;5016037;28;20034;-72
2021/11/23 11:18:19;;;;;;;4.35;1.05;;;;;;;9.80;92.79;103247.53;5015670;28;20030;-73